sensor_id;sensor_type;location;lat;lon;timestamp;pressure;altitude;pressure_sealevel;temperature;humidity
45941;BME280;31858;46.008;8.978;2022-08-06T00:05:28;94507.97;;;25.58;43.28
45941;BME280;31858;46.008;8.978;2022-08-06T00:15:31;94501.56;;;25.61;43.34
45941;BME280;31858;46.008;8.978;2022-08-06T00:25:33;94491.06;;;25.69;41.45
45941;BME280;31858;46.008;8.978;2022-08-06T00:35:36;94480.06;;;25.78;41.07
45941;BME280;31858;46.008;8.978;2022-08-06T00:45:38;94476.53;;;25.63;41.09
45941;BME280;31858;46.008;8.978;2022-08-06T00:55:41;94466.13;;;25.76;40.74
45941;BME280;31858;46.008;8.978;2022-08-06T01:05:43;94487.25;;;25.52;42.22
45941;BME280;31858;46.008;8.978;2022-08-06T01:16:01;94488.34;;;25.30;44.35
45941;BME280;31858;46.008;8.978;2022-08-06T01:26:39;94477.56;;;25.51;42.89
45941;BME280;31858;46.008;8.978;2022-08-06T01:36:50;94498.63;;;25.50;43.38
45941;BME280;31858;46.008;8.978;2022-08-06T01:46:56;94507.81;;;25.77;43.29
45941;BME280;31858;46.008;8.978;2022-08-06T01:57:00;94512.94;;;25.60;41.82
45941;BME280;31858;46.008;8.978;2022-08-06T02:07:05;94516.97;;;25.50;43.61
45941;BME280;31858;46.008;8.978;2022-08-06T02:17:10;94520.63;;;25.32;43.65
45941;BME280;31858;46.008;8.978;2022-08-06T02:27:13;94515.63;;;25.30;43.37
45941;BME280;31858;46.008;8.978;2022-08-06T02:37:18;94504.34;;;25.38;43.96
45941;BME280;31858;46.008;8.978;2022-08-06T02:47:25;94503.78;;;25.33;43.74
45941;BME280;31858;46.008;8.978;2022-08-06T02:57:33;94504.69;;;25.16;44.51
45941;BME280;31858;46.008;8.978;2022-08-06T03:07:39;94488.16;;;24.95;44.42
45941;BME280;31858;46.008;8.978;2022-08-06T03:17:44;94488.91;;;24.96;44.42
45941;BME280;31858;46.008;8.978;2022-08-06T03:27:47;94478.13;;;25.01;43.96
45941;BME280;31858;46.008;8.978;2022-08-06T03:37:53;94490.94;;;25.10;43.97
45941;BME280;31858;46.008;8.978;2022-08-06T03:47:56;94494.78;;;25.03;44.45
45941;BME280;31858;46.008;8.978;2022-08-06T03:58:03;94494.28;;;24.81;44.83
45941;BME280;31858;46.008;8.978;2022-08-06T04:08:06;94497.19;;;24.78;45.38
45941;BME280;31858;46.008;8.978;2022-08-06T04:18:12;94498.94;;;24.90;46.41
45941;BME280;31858;46.008;8.978;2022-08-06T04:28:16;94516.81;;;24.67;46.50
45941;BME280;31858;46.008;8.978;2022-08-06T04:38:21;94508.53;;;24.61;47.17
45941;BME280;31858;46.008;8.978;2022-08-06T04:48:24;94519.47;;;24.52;48.12
45941;BME280;31858;46.008;8.978;2022-08-06T04:58:28;94530.66;;;24.54;48.38
45941;BME280;31858;46.008;8.978;2022-08-06T05:08:31;94536.06;;;24.63;48.85
45941;BME280;31858;46.008;8.978;2022-08-06T05:18:37;94539.75;;;24.51;48.61
45941;BME280;31858;46.008;8.978;2022-08-06T05:28:40;94545.97;;;24.43;48.53
45941;BME280;31858;46.008;8.978;2022-08-06T05:38:44;94558.56;;;24.31;48.51
45941;BME280;31858;46.008;8.978;2022-08-06T05:48:49;94563.28;;;24.30;49.25
45941;BME280;31858;46.008;8.978;2022-08-06T05:58:59;94565.41;;;24.26;50.09
45941;BME280;31858;46.008;8.978;2022-08-06T06:09:02;94569.50;;;24.13;49.66
45941;BME280;31858;46.008;8.978;2022-08-06T06:19:13;94574.63;;;24.20;51.25
45941;BME280;31858;46.008;8.978;2022-08-06T06:29:30;94570.69;;;24.30;49.26
45941;BME280;31858;46.008;8.978;2022-08-06T06:39:38;94571.88;;;24.38;49.75
45941;BME280;31858;46.008;8.978;2022-08-06T06:49:46;94563.88;;;24.34;50.24
45941;BME280;31858;46.008;8.978;2022-08-06T06:59:52;94560.38;;;24.34;51.89
45941;BME280;31858;46.008;8.978;2022-08-06T07:09:56;94573.34;;;24.48;47.58
45941;BME280;31858;46.008;8.978;2022-08-06T07:20:03;94574.78;;;24.67;48.59
45941;BME280;31858;46.008;8.978;2022-08-06T07:30:08;94577.78;;;24.93;49.00
45941;BME280;31858;46.008;8.978;2022-08-06T07:40:18;94578.69;;;24.99;50.13
45941;BME280;31858;46.008;8.978;2022-08-06T07:50:22;94570.41;;;24.85;51.88
45941;BME280;31858;46.008;8.978;2022-08-06T08:00:26;94556.28;;;24.95;52.73
45941;BME280;31858;46.008;8.978;2022-08-06T08:10:27;94555.88;;;24.88;55.17
45941;BME280;31858;46.008;8.978;2022-08-06T08:20:31;94538.47;;;24.85;54.40
45941;BME280;31858;46.008;8.978;2022-08-06T08:30:37;94536.72;;;25.06;55.01
45941;BME280;31858;46.008;8.978;2022-08-06T08:40:41;94538.69;;;25.44;52.05
45941;BME280;31858;46.008;8.978;2022-08-06T08:50:45;94547.13;;;25.70;50.61
45941;BME280;31858;46.008;8.978;2022-08-06T09:00:49;94545.09;;;25.94;48.06
45941;BME280;31858;46.008;8.978;2022-08-06T09:10:51;94543.56;;;26.23;47.10
45941;BME280;31858;46.008;8.978;2022-08-06T09:20:54;94547.31;;;26.40;44.97
45941;BME280;31858;46.008;8.978;2022-08-06T09:30:58;94546.31;;;26.73;43.26
45941;BME280;31858;46.008;8.978;2022-08-06T09:41:06;94548.66;;;27.15;43.59
45941;BME280;31858;46.008;8.978;2022-08-06T09:51:07;94549.91;;;27.40;42.94
45941;BME280;31858;46.008;8.978;2022-08-06T10:01:23;94546.06;;;27.52;44.18
45941;BME280;31858;46.008;8.978;2022-08-06T10:11:34;94542.34;;;27.75;42.63
45941;BME280;31858;46.008;8.978;2022-08-06T10:21:37;94538.72;;;27.84;43.24
45941;BME280;31858;46.008;8.978;2022-08-06T10:31:39;94537.16;;;28.03;38.32
45941;BME280;31858;46.008;8.978;2022-08-06T10:41:43;94534.69;;;28.05;40.51
45941;BME280;31858;46.008;8.978;2022-08-06T10:51:46;94528.78;;;28.44;38.09
45941;BME280;31858;46.008;8.978;2022-08-06T11:01:56;94519.94;;;28.66;38.41
45941;BME280;31858;46.008;8.978;2022-08-06T11:12:14;94512.13;;;28.90;37.24
45941;BME280;31858;46.008;8.978;2022-08-06T11:22:33;94502.47;;;29.06;37.18
45941;BME280;31858;46.008;8.978;2022-08-06T11:32:46;94493.31;;;29.26;37.93
45941;BME280;31858;46.008;8.978;2022-08-06T11:42:50;94488.88;;;29.39;36.33
45941;BME280;31858;46.008;8.978;2022-08-06T11:52:51;94467.00;;;29.56;35.77
45941;BME280;31858;46.008;8.978;2022-08-06T12:02:56;94463.50;;;29.95;36.81
45941;BME280;31858;46.008;8.978;2022-08-06T12:12:58;94462.28;;;30.01;35.15
45941;BME280;31858;46.008;8.978;2022-08-06T12:23:02;94453.53;;;30.14;35.11
45941;BME280;31858;46.008;8.978;2022-08-06T12:33:06;94447.28;;;30.30;34.96
45941;BME280;31858;46.008;8.978;2022-08-06T12:43:10;94430.50;;;30.56;34.05
45941;BME280;31858;46.008;8.978;2022-08-06T12:53:15;94419.22;;;30.71;33.96
45941;BME280;31858;46.008;8.978;2022-08-06T13:03:20;94410.16;;;30.87;33.74
45941;BME280;31858;46.008;8.978;2022-08-06T13:13:36;94409.53;;;31.11;33.45
45941;BME280;31858;46.008;8.978;2022-08-06T13:23:45;94396.41;;;31.34;34.15
45941;BME280;31858;46.008;8.978;2022-08-06T13:33:58;94392.72;;;31.61;33.08
45941;BME280;31858;46.008;8.978;2022-08-06T13:44:02;94383.38;;;31.75;33.23
45941;BME280;31858;46.008;8.978;2022-08-06T13:54:03;94374.78;;;31.85;32.43
45941;BME280;31858;46.008;8.978;2022-08-06T14:04:08;94369.28;;;31.85;32.05
45941;BME280;31858;46.008;8.978;2022-08-06T14:14:10;94364.91;;;31.95;32.67
45941;BME280;31858;46.008;8.978;2022-08-06T14:24:13;94374.75;;;32.15;33.04
45941;BME280;31858;46.008;8.978;2022-08-06T14:34:15;94360.66;;;32.48;32.34
45941;BME280;31858;46.008;8.978;2022-08-06T14:44:18;94369.97;;;32.64;32.07
45941;BME280;31858;46.008;8.978;2022-08-06T14:54:37;94342.22;;;32.56;32.44
45941;BME280;31858;46.008;8.978;2022-08-06T15:04:40;94344.25;;;32.56;32.75
45941;BME280;31858;46.008;8.978;2022-08-06T15:14:42;94353.66;;;32.66;32.81
45941;BME280;31858;46.008;8.978;2022-08-06T15:24:45;94329.34;;;32.46;32.83
45941;BME280;31858;46.008;8.978;2022-08-06T15:34:47;94341.34;;;32.48;33.54
45941;BME280;31858;46.008;8.978;2022-08-06T15:44:50;94314.56;;;32.62;34.09
45941;BME280;31858;46.008;8.978;2022-08-06T15:54:52;94329.16;;;33.00;33.25
45941;BME280;31858;46.008;8.978;2022-08-06T16:04:55;94324.47;;;32.52;35.07
45941;BME280;31858;46.008;8.978;2022-08-06T16:14:57;94357.94;;;31.58;35.58
45941;BME280;31858;46.008;8.978;2022-08-06T16:25:00;94370.22;;;30.75;36.88
45941;BME280;31858;46.008;8.978;2022-08-06T16:35:01;94409.09;;;30.04;38.87
45941;BME280;31858;46.008;8.978;2022-08-06T16:45:06;94429.41;;;29.08;40.89
45941;BME280;31858;46.008;8.978;2022-08-06T16:55:08;94443.97;;;28.77;44.81
45941;BME280;31858;46.008;8.978;2022-08-06T17:05:13;94497.88;;;28.12;55.48
45941;BME280;31858;46.008;8.978;2022-08-06T17:15:15;94492.56;;;25.85;97.65
45941;BME280;31858;46.008;8.978;2022-08-06T17:25:19;94509.84;;;25.52;80.50
45941;BME280;31858;46.008;8.978;2022-08-06T17:35:20;94500.19;;;25.81;78.07
45941;BME280;31858;46.008;8.978;2022-08-06T17:45:24;94491.44;;;25.77;59.86
45941;BME280;31858;46.008;8.978;2022-08-06T17:55:26;94493.28;;;25.56;71.16
45941;BME280;31858;46.008;8.978;2022-08-06T18:05:29;94499.41;;;25.12;74.26
45941;BME280;31858;46.008;8.978;2022-08-06T18:15:31;94505.44;;;25.16;72.21
45941;BME280;31858;46.008;8.978;2022-08-06T18:25:34;94532.28;;;25.32;74.24
45941;BME280;31858;46.008;8.978;2022-08-06T18:35:38;94549.56;;;24.06;100.00
45941;BME280;31858;46.008;8.978;2022-08-06T18:45:41;94552.47;;;23.02;100.00
45941;BME280;31858;46.008;8.978;2022-08-06T18:55:42;94566.38;;;22.55;100.00
45941;BME280;31858;46.008;8.978;2022-08-06T19:05:45;94551.69;;;21.38;100.00
45941;BME280;31858;46.008;8.978;2022-08-06T19:15:47;94574.19;;;21.13;100.00
45941;BME280;31858;46.008;8.978;2022-08-06T19:25:50;94574.53;;;21.02;100.00
45941;BME280;31858;46.008;8.978;2022-08-06T19:35:52;94588.81;;;21.03;100.00
45941;BME280;31858;46.008;8.978;2022-08-06T19:45:55;94618.69;;;21.37;100.00
45941;BME280;31858;46.008;8.978;2022-08-06T19:55:56;94644.09;;;21.05;100.00
45941;BME280;31858;46.008;8.978;2022-08-06T20:05:59;94675.84;;;20.92;100.00
45941;BME280;31858;46.008;8.978;2022-08-06T20:16:02;94695.56;;;20.67;100.00
45941;BME280;31858;46.008;8.978;2022-08-06T20:26:05;94687.88;;;20.91;100.00
45941;BME280;31858;46.008;8.978;2022-08-06T20:36:07;94708.47;;;21.27;100.00
45941;BME280;31858;46.008;8.978;2022-08-06T20:46:10;94695.66;;;21.14;100.00
45941;BME280;31858;46.008;8.978;2022-08-06T20:56:12;94708.13;;;21.37;100.00
45941;BME280;31858;46.008;8.978;2022-08-06T21:06:15;94759.28;;;21.61;100.00
45941;BME280;31858;46.008;8.978;2022-08-06T21:16:17;94732.19;;;21.10;100.00
45941;BME280;31858;46.008;8.978;2022-08-06T21:26:20;94751.69;;;20.79;100.00
45941;BME280;31858;46.008;8.978;2022-08-06T21:36:22;94716.50;;;20.38;100.00
45941;BME280;31858;46.008;8.978;2022-08-06T21:46:25;94749.06;;;20.63;100.00
45941;BME280;31858;46.008;8.978;2022-08-06T21:56:27;94730.53;;;20.49;100.00
45941;BME280;31858;46.008;8.978;2022-08-06T22:06:30;94721.00;;;20.57;100.00
45941;BME280;31858;46.008;8.978;2022-08-06T22:16:32;94760.88;;;20.69;100.00
45941;BME280;31858;46.008;8.978;2022-08-06T22:26:35;94780.03;;;20.62;100.00
45941;BME280;31858;46.008;8.978;2022-08-06T22:36:36;94761.97;;;20.84;100.00
45941;BME280;31858;46.008;8.978;2022-08-06T22:46:39;94800.53;;;20.89;100.00
45941;BME280;31858;46.008;8.978;2022-08-06T22:56:41;94793.69;;;20.84;100.00
45941;BME280;31858;46.008;8.978;2022-08-06T23:06:44;94808.66;;;20.89;100.00
45941;BME280;31858;46.008;8.978;2022-08-06T23:16:46;94797.47;;;20.61;100.00
45941;BME280;31858;46.008;8.978;2022-08-06T23:26:49;94803.06;;;21.08;100.00
45941;BME280;31858;46.008;8.978;2022-08-06T23:36:51;94769.78;;;20.95;100.00
45941;BME280;31858;46.008;8.978;2022-08-06T23:46:54;94790.47;;;20.89;100.00
45941;BME280;31858;46.008;8.978;2022-08-06T23:56:56;94782.88;;;20.97;100.00
